Vereeniging Airport

Jump to: basic info | weather | frequencies | runways | comments

Related pages: nearby airports | nearby navaids | notams | map

Basic information (top)

Codes: FAVV
Location: lon -26.566401, lat 27.960800, elev 4,846 ft / 1,477 m msl
Status: medium_airport

Weather (top)

Current conditions (rec'd 2014/04/18 12:00Z):

FAVV 181200Z AUTO 00000KT //// // ////// 23/07 Q1022

Airport forecast for OR Tambo International Airport 30nm (55km) NNE (rec'd 2014/04/16 00:00Z):

TAF FAOR 162200Z 1700/1806 06008KT 4000 BR BKN004 
      TEMPO 1702/1706 0800 FG BKN001 
      BECMG 1708/1710 30013KT 9999 SCT030 TX19/1712ZTN09/1704Z

Frequencies (top)

Verify before use: may be inaccurate or out of date.

CTAF: 122.1 MHz (CTAF)

Runways (top)

03/21: 5,266 x 72 ft (1,605 x 22 m) — paved — lighted — threshold 21 displaced 260 ft (79 m)

15/33: 3,724 x 52 ft (1,135 x 16 m) — paved — not lighted

Latest comments (top)

Information: Good day this is Mpho, i just need to ... [read]

More... (top)

See also NOTAMs and nearby airports and navaids, or visit the Vereeniging Airport page at the main OurAirports website..